Time;durP1;ratioP1;P1;durP2;ratioP2;P2;SDS_P1;SDS_P2;PMS_P1;PMS_P2;Temp;Humidity;BMP_temperature;BMP_pressure;BME280_temperature;BME280_humidity;BME280_pressure;Samples;Min_cycle;Max_cycle;Signal;HPM_P1;HPM_P2
2022/05/11 00:01:29;;;;;;;;;;;;;;;-144.99;100.00;52289.13;5010451;28;19926;-60
2022/05/11 00:03:55;;;;;;;;;;;;;;;-144.99;100.00;52293.19;5010330;28;19929;-60
2022/05/11 00:06:22;;;;;;;;;;;;;;;-144.99;100.00;52240.19;5010409;28;19933;-60
2022/05/11 00:08:50;;;;;;;;;;;;;;;-144.99;100.00;52244.28;5010861;28;19925;-60
2022/05/11 00:11:17;;;;;;;;;;;;;;;-144.99;100.00;52309.50;5011325;28;19925;-60
2022/05/11 00:13:44;;;;;;;;;;;;;;;-144.99;100.00;52252.44;5010295;28;19929;-61
2022/05/11 00:16:10;;;;;;;;;;;;;;;-144.99;100.00;52256.50;5010381;28;20024;-63
2022/05/11 00:18:37;;;;;;;;;;;;;;;-144.99;100.00;52252.44;5009944;28;19925;-62
2022/05/11 00:21:03;;;;;;;;;;;;;;;-144.99;100.00;52266.69;5008358;28;19949;-61
2022/05/11 00:23:30;;;;;;;;;;;;;;;-144.99;100.00;52297.25;5011070;28;19925;-65
2022/05/11 00:25:57;;;;;;;;;;;;;;;-144.99;100.00;52266.69;5010201;28;19953;-63
2022/05/11 00:28:24;;;;;;;;;;;;;;;-144.99;100.00;52248.34;5010038;28;19926;-63
2022/05/11 00:30:50;;;;;;;;;;;;;;;-144.99;100.00;52264.66;5010015;28;20375;-63
2022/05/11 00:33:18;;;;;;;;;;;;;;;-144.99;100.00;52289.13;5009499;28;20297;-64
2022/05/11 00:35:46;;;;;;;;;;;;;;;-144.99;100.00;52297.25;5009670;28;19925;-64
2022/05/11 00:38:12;;;;;;;;;;;;;;;-144.99;100.00;52276.88;5009529;28;20280;-63
2022/05/11 00:40:42;;;;;;;;;;;;;;;-144.99;100.00;52256.50;5009850;28;20095;-63
2022/05/11 00:43:10;;;;;;;;;;;;;;;-144.99;100.00;52301.34;5005753;28;20382;-63
2022/05/11 00:45:38;;;;;;;;;;;;;;;-144.99;100.00;52256.50;5009572;28;19935;-63
2022/05/11 00:49:33;;;;;;;;;;;;;;;-144.99;100.00;52317.66;5008867;28;19956;-63
2022/05/11 00:50:53;;;;;;;;;;;;;;;-144.99;100.00;52295.22;5005542;28;19932;-63
2022/05/11 00:53:20;;;;;;;;;;;;;;;-144.99;100.00;52283.00;5009962;28;20168;-63
2022/05/11 00:55:48;;;;;;;;;;;;;;;-144.99;100.00;52283.00;5009143;28;19933;-63
2022/05/11 00:58:20;;;;;;;;;;;;;;;-144.99;100.00;52278.91;5009279;28;19936;-65
2022/05/11 01:00:47;;;;;;;;;;;;;;;-144.99;100.00;52272.81;5009390;28;19925;-64
2022/05/11 01:03:15;;;;;;;;;;;;;;;-144.99;100.00;52305.41;5009173;28;19926;-64
2022/05/11 01:05:41;;;;;;;;;;;;;;;-144.99;100.00;52219.81;5009562;28;19926;-63
2022/05/11 01:08:08;;;;;;;;;;;;;;;-144.99;100.00;52256.50;5009106;28;19929;-64
2022/05/11 01:10:34;;;;;;;;;;;;;;;-144.99;100.00;52285.03;5009745;28;19925;-60
2022/05/11 01:13:03;;;;;;;;;;;;;;;-144.99;100.00;52256.50;5008782;28;19925;-62
2022/05/11 01:15:32;;;;;;;;;;;;;;;-144.99;100.00;52285.03;5007623;28;20487;-61
2022/05/11 01:17:59;;;;;;;;;;;;;;;-144.99;100.00;52272.81;5004431;28;19970;-63
2022/05/11 01:20:26;;;;;;;;;;;;;;;-144.99;100.00;52297.25;5008847;28;20043;-63
2022/05/11 01:22:54;;;;;;;;;;;;;;;-144.99;100.00;52276.88;5008966;28;19926;-60
2022/05/11 01:25:23;;;;;;;;;;;;;;;-144.99;100.00;52272.81;5009122;28;19933;-61
2022/05/11 01:27:49;;;;;;;;;;;;;;;-144.99;100.00;52303.38;5008658;28;19932;-60
2022/05/11 01:30:18;;;;;;;;;;;;;;;-144.99;100.00;52254.47;5008300;28;19944;-61
2022/05/11 01:32:45;;;;;;;;;;;;;;;-144.99;100.00;52256.50;5006337;28;19925;-59
2022/05/11 01:35:20;;;;;;;;;;;;;;;-144.99;100.00;52270.78;5008397;28;19926;-61
2022/05/11 01:37:54;;;;;;;;;;;;;;;-144.99;100.00;52291.16;5008735;28;19929;-60
2022/05/11 01:40:22;;;;;;;;;;;;;;;-144.99;100.00;52313.56;5008763;28;19963;-60
2022/05/11 01:42:49;;;;;;;;;;;;;;;-144.99;100.00;52289.13;5005173;28;20314;-60
2022/05/11 01:45:16;;;;;;;;;;;;;;;-144.99;100.00;52293.19;5008461;28;19997;-60
2022/05/11 01:47:42;;;;;;;;;;;;;;;-144.99;100.00;52276.88;5008443;28;19930;-60
2022/05/11 01:50:09;;;;;;;;;;;;;;;-144.99;100.00;52248.34;5004867;28;19925;-60
2022/05/11 01:52:35;;;;;;;;;;;;;;;-144.99;100.00;52256.50;5008766;28;19929;-59
2022/05/11 01:55:03;;;;;;;;;;;;;;;-144.99;100.00;52276.88;5008177;28;19933;-61
2022/05/11 01:57:31;;;;;;;;;;;;;;;-144.99;100.00;52285.03;5004774;28;20000;-61
2022/05/11 01:59:57;;;;;;;;;;;;;;;-144.99;100.00;52293.19;5005259;28;20076;-61
2022/05/11 02:02:24;;;;;;;;;;;;;;;-144.99;100.00;52280.97;5008440;28;19936;-59
2022/05/11 02:07:52;;;;;;;;;;;;;;;-144.99;100.00;52272.81;5008686;28;20370;-60
2022/05/11 02:10:19;;;;;;;;;;;;;;;-144.99;100.00;52280.97;5009072;28;20410;-60
2022/05/11 02:12:47;;;;;;;;;;;;;;;-144.99;100.00;52321.72;5009040;28;19940;-60
2022/05/11 02:15:14;;;;;;;;;;;;;;;-144.99;100.00;52272.81;5007910;28;20136;-60
2022/05/11 02:17:41;;;;;;;;;;;;;;;-144.99;100.00;52244.28;5008524;28;19926;-60
2022/05/11 02:20:08;;;;;;;;;;;;;;;-144.99;100.00;52289.13;5008565;28;20378;-60
2022/05/11 02:22:34;;;;;;;;;;;;;;;-144.99;100.00;52280.97;5001727;28;19971;-60
2022/05/11 02:25:00;;;;;;;;;;;;;;;-144.99;100.00;52321.72;5008711;28;20445;-61
2022/05/11 02:27:27;;;;;;;;;;;;;;;-144.99;100.00;52309.50;5000691;28;19925;-59
2022/05/11 02:29:54;;;;;;;;;;;;;;;-144.99;100.00;52301.34;5009331;28;19932;-60
2022/05/11 02:32:21;;;;;;;;;;;;;;;-144.99;100.00;52293.19;5010787;28;19944;-58
2022/05/11 02:37:31;;;;;;;;;;;;;;;-144.99;100.00;52258.53;5005168;28;19932;-59
2022/05/11 02:39:57;;;;;;;;;;;;;;;-144.99;100.00;52246.31;5012085;28;19925;-58
2022/05/11 02:42:24;;;;;;;;;;;;;;;-144.99;100.00;52264.66;5011579;28;19925;-59
2022/05/11 02:44:50;;;;;;;;;;;;;;;-144.99;100.00;52289.13;5011170;28;19945;-57
2022/05/11 02:47:18;;;;;;;;;;;;;;;-144.99;100.00;52264.66;5011832;28;19937;-59
2022/05/11 02:49:45;;;;;;;;;;;;;;;-144.99;100.00;52254.47;5011272;28;19959;-59
2022/05/11 02:52:14;;;;;;;;;;;;;;;-144.99;100.00;52289.13;5011495;28;19925;-59
2022/05/11 02:54:40;;;;;;;;;;;;;;;-144.99;100.00;52280.97;5011640;28;19933;-58
2022/05/11 02:57:06;;;;;;;;;;;;;;;-144.99;100.00;52289.13;5008584;28;19936;-59
2022/05/11 02:59:33;;;;;;;;;;;;;;;-144.99;100.00;52260.56;5011164;28;19933;-59
2022/05/11 03:01:59;;;;;;;;;;;;;;;-144.99;100.00;52285.03;5011808;28;19925;-60
2022/05/11 03:04:27;;;;;;;;;;;;;;;-144.99;100.00;52248.34;5009241;28;20722;-63
2022/05/11 03:06:53;;;;;;;;;;;;;;;-144.99;100.00;52280.97;5014633;28;19925;-62
2022/05/11 03:09:20;;;;;;;;;;;;;;;-144.99;100.00;52266.69;5014028;28;19926;-62
2022/05/11 03:11:46;;;;;;;;;;;;;;;-144.99;100.00;52252.44;5011573;28;20385;-64
2022/05/11 03:14:13;;;;;;;;;;;;;;;-144.99;100.00;52293.19;5012014;28;19932;-64
2022/05/11 03:16:39;;;;;;;;;;;;;;;-144.99;100.00;52299.31;5011428;28;20490;-64
2022/05/11 03:19:06;;;;;;;;;;;;;;;-144.99;100.00;52289.13;5011709;28;20111;-66
2022/05/11 03:21:33;;;;;;;;;;;;;;;-144.99;100.00;52242.22;5011542;28;19929;-64
2022/05/11 03:24:00;;;;;;;;;;;;;;;-144.99;100.00;52272.81;5011973;28;19933;-70
2022/05/11 03:26:26;;;;;;;;;;;;;;;-144.99;100.00;52297.25;5001024;28;19930;-68
2022/05/11 03:28:53;;;;;;;;;;;;;;;-144.99;100.00;52289.13;5003227;28;20465;-69
2022/05/11 03:31:19;;;;;;;;;;;;;;;-144.99;100.00;52272.81;5011885;28;19925;-69
2022/05/11 03:36:30;;;;;;;;;;;;;;;-144.99;100.00;52264.66;5021733;28;19932;-67
2022/05/11 03:38:58;;;;;;;;;;;;;;;-144.99;100.00;52280.97;5006273;28;19933;-66
2022/05/11 03:41:24;;;;;;;;;;;;;;;-144.99;100.00;52305.41;5009998;28;20334;-65
2022/05/11 03:43:50;;;;;;;;;;;;;;;-144.99;100.00;52307.47;5010290;28;19934;-67
2022/05/11 03:46:17;;;;;;;;;;;;;;;-144.99;100.00;52307.47;5011157;28;19933;-67
2022/05/11 03:48:43;;;;;;;;;;;;;;;-144.99;100.00;52309.50;5011361;28;20464;-65
2022/05/11 03:51:10;;;;;;;;;;;;;;;-144.99;100.00;52272.81;5010127;28;19925;-64
2022/05/11 03:53:37;;;;;;;;;;;;;;;-144.99;100.00;52268.72;5018748;28;19951;-65
2022/05/11 03:56:05;;;;;;;;;;;;;;;-144.99;100.00;52256.50;5015512;28;20016;-62
2022/05/11 03:58:31;;;;;;;;;;;;;;;-144.99;100.00;52276.88;5011621;28;20133;-62
2022/05/11 04:00:57;;;;;;;;;;;;;;;-144.99;100.00;52297.25;5012676;28;19933;-61
2022/05/11 04:03:24;;;;;;;;;;;;;;;-144.99;100.00;52289.13;5011861;28;20024;-62
2022/05/11 04:05:50;;;;;;;;;;;;;;;-144.99;100.00;52244.28;5011398;28;19925;-63
2022/05/11 04:08:16;;;;;;;;;;;;;;;-144.99;100.00;52280.97;5010667;28;19933;-64
2022/05/11 04:10:43;;;;;;;;;;;;;;;-144.99;100.00;52268.72;5006814;28;19932;-62
2022/05/11 04:13:11;;;;;;;;;;;;;;;-144.99;100.00;52256.50;5010015;28;19925;-63
2022/05/11 04:15:38;;;;;;;;;;;;;;;-144.99;100.00;52264.66;5010798;28;19926;-60
2022/05/11 04:18:04;;;;;;;;;;;;;;;-144.99;100.00;52280.97;5009675;28;19948;-61
2022/05/11 04:20:31;;;;;;;;;;;;;;;-144.99;100.00;52289.13;5010230;28;20302;-61
2022/05/11 04:22:57;;;;;;;;;;;;;;;-144.99;100.00;52268.72;5010458;28;20413;-61
2022/05/11 04:25:24;;;;;;;;;;;;;;;-144.99;100.00;52272.81;5010786;28;20375;-62
2022/05/11 04:27:50;;;;;;;;;;;;;;;-144.99;100.00;52297.25;5003780;28;19972;-61
2022/05/11 04:30:19;;;;;;;;;;;;;;;-144.99;100.00;52236.13;5009942;28;19929;-62
2022/05/11 04:32:45;;;;;;;;;;;;;;;-144.99;100.00;52285.03;5008634;28;19925;-60
2022/05/11 04:35:11;;;;;;;;;;;;;;;-144.99;100.00;52313.56;5010380;28;19929;-62
2022/05/11 04:37:38;;;;;;;;;;;;;;;-144.99;100.00;52297.25;5006168;28;19926;-61
2022/05/11 04:40:05;;;;;;;;;;;;;;;-144.99;100.00;52305.41;5010254;28;20107;-62
2022/05/11 04:42:32;;;;;;;;;;;;;;;-144.99;100.00;52268.72;5006659;28;19926;-63
2022/05/11 04:44:58;;;;;;;;;;;;;;;-144.99;100.00;52309.50;5009341;28;19925;-67
2022/05/11 04:47:26;;;;;;;;;;;;;;;-144.99;100.00;52276.88;5010050;28;19948;-67
2022/05/11 04:49:53;;;;;;;;;;;;;;;-144.99;100.00;52252.44;5009241;28;19925;-68
2022/05/11 04:52:19;;;;;;;;;;;;;;;-144.99;100.00;52256.50;5009985;28;19925;-68
2022/05/11 04:54:48;;;;;;;;;;;;;;;-144.99;100.00;52230.00;5007621;28;19926;-67
2022/05/11 04:57:14;;;;;;;;;;;;;;;-144.99;100.00;52276.88;5009346;28;19926;-69
2022/05/11 04:59:41;;;;;;;;;;;;;;;-144.99;100.00;52227.97;5009548;28;19925;-69
2022/05/11 05:02:13;;;;;;;;;;;;;;;-144.99;100.00;52244.28;4315269;28;10000713;-69
2022/05/11 05:04:41;;;;;;;;;;;;;;;-144.99;100.00;52252.44;5000485;28;19925;-69
2022/05/11 05:07:07;;;;;;;;;;;;;;;-144.99;100.00;52264.66;4996387;28;20407;-68
2022/05/11 05:09:34;;;;;;;;;;;;;;;-144.99;100.00;52244.28;4999116;28;19926;-68
2022/05/11 05:12:01;;;;;;;;;;;;;;;-144.99;100.00;52307.47;5007217;28;19925;-69
2022/05/11 05:14:27;;;;;;;;;;;;;;;-144.99;100.00;52313.56;4998911;28;19956;-68
2022/05/11 05:17:00;;;;;;;;;;;;;;;-144.99;100.00;52268.72;5006370;28;19929;-69
2022/05/11 05:19:26;;;;;;;;;;;;;;;-144.99;100.00;52301.34;5008024;28;19940;-68
2022/05/11 05:21:54;;;;;;;;;;;;;;;-144.99;100.00;52276.88;5008082;28;19960;-69
2022/05/11 05:24:20;;;;;;;;;;;;;;;-144.99;100.00;52289.13;5008846;28;19929;-69
2022/05/11 05:26:46;;;;;;;;;;;;;;;-144.99;100.00;52327.84;5008626;28;19933;-68
2022/05/11 05:31:57;;;;;;;;;;;;;;;-144.99;100.00;52248.34;5007218;28;19948;-68
2022/05/11 05:34:23;;;;;;;;;;;;;;;-144.99;100.00;52325.81;5007210;28;19929;-69
2022/05/11 05:36:49;;;;;;;;;;;;;;;-144.99;100.00;52248.34;5006783;28;19929;-69
2022/05/11 05:39:17;;;;;;;;;;;;;;;-144.99;100.00;52280.97;5007462;28;19936;-69
2022/05/11 05:41:43;;;;;;;;;;;;;;;-144.99;100.00;52268.72;5008002;28;20237;-69
2022/05/11 05:44:10;;;;;;;;;;;;;;;-144.99;100.00;52272.81;5004122;28;20390;-69
2022/05/11 05:46:36;;;;;;;;;;;;;;;-144.99;100.00;52252.44;5007340;28;20330;-70
2022/05/11 05:49:03;;;;;;;;;;;;;;;-144.99;100.00;52287.06;5005762;28;20361;-70
2022/05/11 05:51:30;;;;;;;;;;;;;;;-144.99;100.00;52266.69;5006514;28;19930;-68
2022/05/11 05:53:56;;;;;;;;;;;;;;;-144.99;100.00;52272.81;5006939;28;19926;-68
2022/05/11 05:56:24;;;;;;;;;;;;;;;-144.99;100.00;52268.72;5002887;28;19930;-69
2022/05/11 05:58:55;;;;;;;;;;;;;;;-144.99;100.00;52227.97;5003659;28;19940;-70
2022/05/11 06:01:21;;;;;;;;;;;;;;;-144.99;100.00;52258.53;5007539;28;19940;-69
2022/05/11 06:03:48;;;;;;;;;;;;;;;-144.99;100.00;52264.66;5007537;28;20291;-69
2022/05/11 06:06:14;;;;;;;;;;;;;;;-144.99;100.00;52248.34;5010543;28;20023;-69
2022/05/11 06:08:41;;;;;;;;;;;;;;;-144.99;100.00;52276.88;5010279;28;19930;-68
2022/05/11 06:11:08;;;;;;;;;;;;;;;-144.99;100.00;52276.88;5011685;28;20499;-70
2022/05/11 06:13:36;;;;;;;;;;;;;;;-144.99;100.00;52217.78;5009442;28;19926;-69
2022/05/11 06:16:02;;;;;;;;;;;;;;;-144.99;100.00;52240.19;5009697;28;19959;-68
2022/05/11 06:18:29;;;;;;;;;;;;;;;-144.99;100.00;52227.97;5009020;28;19929;-69
2022/05/11 06:20:56;;;;;;;;;;;;;;;-144.99;100.00;52270.78;5009407;28;20019;-69
2022/05/11 06:23:23;;;;;;;;;;;;;;;-144.99;100.00;52297.25;5009924;28;20330;-68
2022/05/11 06:25:50;;;;;;;;;;;;;;;-144.99;100.00;52264.66;5009249;28;19937;-69
2022/05/11 06:28:17;;;;;;;;;;;;;;;-144.99;100.00;52260.56;5008433;28;19933;-68
2022/05/11 06:30:46;;;;;;;;;;;;;;;-144.99;100.00;52232.03;5008079;28;19957;-69
2022/05/11 06:33:12;;;;;;;;;;;;;;;-144.99;100.00;52240.19;5008061;28;19925;-69
2022/05/11 06:35:39;;;;;;;;;;;;;;;-144.99;100.00;52260.56;5008187;28;19933;-68
2022/05/11 06:38:06;;;;;;;;;;;;;;;-144.99;100.00;52278.91;5004216;28;19929;-69
2022/05/11 06:40:33;;;;;;;;;;;;;;;-144.99;100.00;52264.66;5008488;28;19940;-68
2022/05/11 06:43:01;;;;;;;;;;;;;;;-144.99;100.00;52238.16;5005738;28;19930;-68
2022/05/11 06:45:28;;;;;;;;;;;;;;;-144.99;100.00;52301.34;5008232;28;20233;-68
2022/05/11 06:47:55;;;;;;;;;;;;;;;-144.99;100.00;52289.13;4952347;28;19980;-69
2022/05/11 06:50:24;;;;;;;;;;;;;;;-144.99;100.00;52260.56;4931057;29;19958;-70
2022/05/11 06:52:51;;;;;;;;;;;;;;;-144.99;100.00;52242.22;4931787;29;19992;-69
2022/05/11 07:00:46;;;;;;;;;;;;;;;-144.99;100.00;52248.34;4932290;29;20125;-68
2022/05/11 07:03:14;;;;;;;;;;;;;;;-144.99;100.00;52232.03;4919420;29;20053;-69
2022/05/11 07:05:41;;;;;;;;;;;;;;;-144.99;100.00;52248.34;4591080;29;10000221;-69
2022/05/11 07:08:08;;;;;;;;;;;;;;;-144.99;100.00;52248.34;4931625;29;20025;-69
2022/05/11 07:10:37;;;;;;;;;;;;;;;-144.99;100.00;52236.13;4930969;29;20042;-69
2022/05/11 07:13:04;;;;;;;;;;;;;;;-144.99;100.00;52236.13;4930625;29;20308;-67
2022/05/11 07:15:30;;;;;;;;;;;;;;;-144.99;100.00;52264.66;4930899;29;19997;-69
2022/05/11 07:17:59;;;;;;;;;;;;;;;-144.99;100.00;52264.66;4930871;29;19938;-69
2022/05/11 07:20:30;;;;;;;;;;;;;;;-144.99;100.00;52256.50;4930824;29;20010;-69
2022/05/11 07:22:57;;;;;;;;;;;;;;;-144.99;100.00;52260.56;4930989;29;20005;-68
2022/05/11 07:25:25;;;;;;;;;;;;;;;-144.99;100.00;52260.56;4919153;29;19931;-69
2022/05/11 07:27:51;;;;;;;;;;;;;;;-144.99;100.00;52254.47;4924619;29;20352;-69
2022/05/11 07:30:19;;;;;;;;;;;;;;;-144.99;100.00;52221.84;4930982;29;19938;-68
2022/05/11 07:32:45;;;;;;;;;;;;;;;-144.99;99.90;52232.03;4930981;29;19931;-68
2022/05/11 07:35:12;;;;;;;;;;;;;;;-144.99;100.00;52219.81;4930412;29;19931;-68
2022/05/11 07:37:40;;;;;;;;;;;;;;;-144.99;100.00;52238.16;4930589;29;19973;-68
2022/05/11 07:40:07;;;;;;;;;;;;;;;-144.99;100.00;52227.97;4930079;29;19937;-68
2022/05/11 07:42:34;;;;;;;;;;;;;;;-144.99;99.97;52246.31;4930293;29;19931;-68
2022/05/11 07:45:00;;;;;;;;;;;;;;;-144.99;98.70;52213.69;4930030;29;20305;-69
2022/05/11 07:47:27;;;;;;;;;;;;;;;-144.99;98.92;52227.97;4925649;29;20055;-68
2022/05/11 07:49:53;;;;;;;;;;;;;;;-144.99;97.62;52230.00;4929109;29;20541;-69
2022/05/11 07:52:20;;;;;;;;;;;;;;;-144.99;97.35;52223.88;4929522;29;19950;-68
2022/05/11 07:54:48;;;;;;;;;;;;;;;-144.99;96.16;52244.28;4929916;29;19933;-68
2022/05/11 07:59:59;;;;;;;;;;;;;;;-144.99;94.76;52234.09;4922615;29;20146;-68
2022/05/11 08:02:27;;;;;;;;;;;;;;;-144.99;95.04;52248.34;4929318;29;20436;-68
2022/05/11 08:04:57;;;;;;;;;;;;;;;-144.99;95.20;52217.78;4929305;29;19931;-68
2022/05/11 08:07:26;;;;;;;;;;;;;;;-144.99;94.83;52268.72;4929782;29;19963;-68
2022/05/11 08:09:53;;;;;;;;;;;;;;;-144.99;93.41;52211.66;4929600;29;20378;-68
2022/05/11 08:12:20;;;;;;;;;;;;;;;-144.99;93.13;52227.97;4929385;29;19934;-69
2022/05/11 08:14:46;;;;;;;;;;;;;;;-144.99;90.98;52223.88;4929797;29;19966;-69
2022/05/11 08:17:13;;;;;;;;;;;;;;;-144.99;89.47;52238.16;4928927;29;19931;-69
2022/05/11 08:19:43;;;;;;;;;;;;;;;-144.99;87.75;52219.81;4929459;29;19961;-68
2022/05/11 08:22:10;;;;;;;;;;;;;;;-144.99;86.72;52211.66;4929698;29;19930;-69
2022/05/11 08:24:37;;;;;;;;;;;;;;;-144.99;85.91;52232.03;4930386;29;20250;-69
2022/05/11 08:27:09;;;;;;;;;;;;;;;-144.99;86.86;52256.50;4929398;29;19993;-68
2022/05/11 08:35:04;;;;;;;;;;;;;;;-144.99;85.05;52232.03;4930806;29;19953;-68
2022/05/11 08:37:30;;;;;;;;;;;;;;;-144.99;85.53;52256.50;4929040;29;20079;-68
2022/05/11 08:39:57;;;;;;;;;;;;;;;-144.99;84.39;52252.44;4928748;29;19933;-68
2022/05/11 08:42:26;;;;;;;;;;;;;;;-144.99;83.13;52187.19;4926218;29;19927;-69
2022/05/11 08:44:52;;;;;;;;;;;;;;;-144.99;83.78;52203.50;4928976;29;19935;-69
2022/05/11 08:47:26;;;;;;;;;;;;;;;-144.99;82.69;52211.66;4928950;29;19931;-68
2022/05/11 08:49:53;;;;;;;;;;;;;;;-144.99;82.50;52211.66;4928810;29;20063;-68
2022/05/11 08:52:25;;;;;;;;;;;;;;;-144.99;80.89;52236.13;4929343;29;19927;-68
2022/05/11 08:54:56;;;;;;;;;;;;;;;-144.99;81.77;52203.50;4928854;29;19937;-69
2022/05/11 08:57:25;;;;;;;;;;;;;;;-144.99;82.20;52205.53;4928972;29;19931;-68
2022/05/11 08:59:54;;;;;;;;;;;;;;;-144.99;81.29;52187.19;4928974;29;19938;-68
2022/05/11 09:02:23;;;;;;;;;;;;;;;-144.99;78.45;52185.16;4928892;29;20097;-68
2022/05/11 09:04:51;;;;;;;;;;;;;;;-144.99;76.95;52187.19;4928156;29;20489;-68
2022/05/11 09:07:17;;;;;;;;;;;;;;;-144.99;76.05;52179.06;4928480;29;19931;-68
2022/05/11 09:09:44;;;;;;;;;;;;;;;-144.99;73.99;52130.13;4928551;29;19938;-68
2022/05/11 09:12:11;;;;;;;;;;;;;;;-144.99;72.65;52174.97;4928477;29;20439;-69
2022/05/11 09:14:39;;;;;;;;;;;;;;;-144.99;71.14;52146.44;4928386;29;19996;-69
2022/05/11 09:17:19;;;;;;;;;;;;;;;-144.99;68.03;52134.22;4927551;29;19960;-69
2022/05/11 09:19:47;;;;;;;;;;;;;;;-144.99;68.39;52146.44;4928388;29;19931;-68
2022/05/11 09:22:17;;;;;;;;;;;;;;;-144.99;67.02;52132.19;4928458;29;19931;-69
2022/05/11 09:24:45;;;;;;;;;;;;;;;-144.99;63.90;52166.81;4928546;29;19927;-69
2022/05/11 09:27:21;;;;;;;;;;;;;;;-144.99;62.27;52162.75;4928547;29;20372;-69
2022/05/11 09:29:54;;;;;;;;;;;;;;;-144.99;62.40;52154.59;4928012;29;19927;-68
2022/05/11 09:32:27;;;;;;;;;;;;;;;-144.99;62.56;52191.28;4928046;29;20333;-69
2022/05/11 09:34:54;;;;;;;;;;;;;;;-144.99;63.35;52183.13;4927381;29;19935;-69
2022/05/11 09:37:34;;;;;;;;;;;;;;;-144.99;62.47;52158.66;4928405;29;19927;-69
2022/05/11 09:40:07;;;;;;;;;;;;;;;-144.99;61.13;52132.19;4929386;29;20400;-68
2022/05/11 09:42:33;;;;;;;;;;;;;;;-144.99;60.69;52177.00;4925936;29;20361;-69
2022/05/11 09:45:00;;;;;;;;;;;;;;;-144.99;58.43;52142.38;4933246;29;19954;-69
2022/05/11 09:47:31;;;;;;;;;;;;;;;-144.99;60.66;52179.06;4927982;29;19926;-69
2022/05/11 09:50:14;;;;;;;;;;;;;;;-144.99;58.88;52130.13;4932041;29;19942;-68
2022/05/11 09:52:41;;;;;;;;;;;;;;;-144.99;58.31;52117.91;4931809;29;19930;-68
2022/05/11 09:55:15;;;;;;;;;;;;;;;-144.99;57.46;52138.28;4931595;29;19930;-68
2022/05/11 09:57:52;;;;;;;;;;;;;;;-144.99;56.29;52126.06;4933083;29;19938;-68
2022/05/11 10:00:20;;;;;;;;;;;;;;;-144.99;55.75;52158.66;4932638;29;19994;-68
2022/05/11 10:02:50;;;;;;;;;;;;;;;-144.99;56.66;52126.06;4932295;29;19931;-67
2022/05/11 10:05:20;;;;;;;;;;;;;;;-144.99;55.19;52130.13;4931898;29;20349;-68
2022/05/11 10:07:49;;;;;;;;;;;;;;;-144.99;55.76;52121.97;4932124;29;19985;-68
2022/05/11 10:10:22;;;;;;;;;;;;;;;-144.99;54.45;52105.69;4932064;29;19935;-68
2022/05/11 10:12:49;;;;;;;;;;;;;;;-144.99;54.94;52134.22;4931591;29;19934;-67
2022/05/11 10:23:47;;;;;;;;;;;;;;;-144.99;52.28;52087.34;4934000;29;19981;-67
2022/05/11 10:26:19;;;;;;;;;;;;;;;-144.99;51.85;52103.66;4591845;29;9999590;-67
2022/05/11 10:28:52;;;;;;;;;;;;;;;-144.99;50.98;52101.59;4931668;29;19931;-67
2022/05/11 10:31:26;;;;;;;;;;;;;;;-144.99;50.71;52105.69;4930503;29;20462;-67
2022/05/11 10:34:00;;;;;;;;;;;;;;;-144.99;50.83;52069.00;4928809;29;19930;-67
2022/05/11 10:36:31;;;;;;;;;;;;;;;-144.99;50.66;52156.63;4930172;29;20009;-67
2022/05/11 10:39:07;;;;;;;;;;;;;;;-144.99;49.28;52146.44;4931752;29;19931;-68
2022/05/11 10:41:36;;;;;;;;;;;;;;;-144.99;49.08;52097.53;4933251;29;19945;-68
2022/05/11 10:44:07;;;;;;;;;;;;;;;-144.99;46.42;52056.78;4933542;29;20154;-68
2022/05/11 10:46:36;;;;;;;;;;;;;;;-144.99;46.79;52036.38;4933532;29;19927;-68
2022/05/11 10:49:12;;;;;;;;;;;;;;;-144.99;46.18;52048.63;4931095;29;19927;-68
2022/05/11 10:51:42;;;;;;;;;;;;;;;-144.99;45.83;51995.63;4930505;29;19935;-68
2022/05/11 10:54:14;;;;;;;;;;;;;;;-144.99;45.10;52052.69;4934696;29;19927;-67
2022/05/11 10:56:46;;;;;;;;;;;;;;;-144.99;44.87;52069.00;4924811;29;19938;-67
2022/05/11 10:59:43;;;;;;;;;;;;;;;-144.99;44.71;51979.31;4930382;29;19927;-68
2022/05/11 11:02:34;;;;;;;;;;;;;;;-144.99;45.11;51995.63;4890132;29;20357;-67
2022/05/11 11:05:07;;;;;;;;;;;;;;;-144.99;45.82;52130.13;4924570;29;19957;-68
2022/05/11 11:07:36;;;;;;;;;;;;;;;-144.99;44.92;52036.38;4927933;29;19943;-67
2022/05/11 11:10:09;;;;;;;;;;;;;;;-144.99;45.08;52170.91;4930141;29;20021;-68
2022/05/11 11:12:49;;;;;;;;;;;;;;;-144.99;45.30;51983.41;4930919;29;19930;-67
2022/05/11 11:15:18;;;;;;;;;;;;;;;-144.99;44.63;52003.78;4929981;29;20457;-68
2022/05/11 11:17:46;;;;;;;;;;;;;;;-144.99;44.00;52020.09;4930679;29;19930;-69
2022/05/11 11:20:17;;;;;;;;;;;;;;;-144.99;42.99;52028.22;4930082;29;19930;-67
2022/05/11 11:23:06;;;;;;;;;;;;;;;-144.99;43.13;51995.63;4930617;29;19938;-67
2022/05/11 11:25:43;;;;;;;;;;;;;;;-144.99;42.61;52048.63;4930544;29;19981;-63
2022/05/11 11:28:12;;;;;;;;;;;;;;;-144.99;43.72;52030.28;4930574;29;19934;-66
2022/05/11 11:30:38;;;;;;;;;;;;;;;-144.99;43.40;52034.34;4935401;29;20423;-66
2022/05/11 11:33:21;;;;;;;;;;;;;;;-144.99;42.87;52001.75;4931447;29;19937;-66
2022/05/11 11:35:53;;;;;;;;;;;;;;;-144.99;41.96;52064.91;4928433;29;19931;-66
2022/05/11 11:38:24;;;;;;;;;;;;;;;-144.99;42.51;52001.75;4931044;29;19942;-66
2022/05/11 11:41:05;;;;;;;;;;;;;;;-144.99;42.20;52085.31;4931920;29;20035;-67
2022/05/11 11:43:43;;;;;;;;;;;;;;;-144.99;43.61;52121.97;4930919;29;20300;-66
2022/05/11 11:46:09;;;;;;;;;;;;;;;-144.99;43.57;52130.13;4931349;29;20392;-66
2022/05/11 11:48:38;;;;;;;;;;;;;;;-144.99;42.95;52146.44;4930954;29;20303;-66
2022/05/11 11:51:08;;;;;;;;;;;;;;;-144.99;43.75;52113.84;4931278;29;19937;-66
2022/05/11 11:53:39;;;;;;;;;;;;;;;-144.99;43.64;52113.84;4930010;29;19931;-66
2022/05/11 11:56:36;;;;;;;;;;;;;;;-144.99;42.41;52060.84;4929357;29;19931;-66
2022/05/11 11:59:04;;;;;;;;;;;;;;;-144.99;42.35;52056.78;4910016;29;19927;-67
2022/05/11 12:01:32;;;;;;;;;;;;;;;-144.99;41.89;52040.47;4927037;29;19953;-67
2022/05/11 12:04:00;;;;;;;;;;;;;;;-144.99;42.15;52026.19;4928695;29;19926;-66
2022/05/11 12:15:02;;;;;;;;;;;;;;;-144.99;41.73;52036.38;4930992;29;20003;-66
2022/05/11 12:17:32;;;;;;;;;;;;;;;-144.99;41.54;52105.69;4930249;29;20411;-66
2022/05/11 12:20:04;;;;;;;;;;;;;;;-144.99;41.08;51991.56;4930940;29;19931;-67
2022/05/11 12:22:33;;;;;;;;;;;;;;;-144.99;40.47;52003.78;4931452;29;19985;-67
2022/05/11 12:25:02;;;;;;;;;;;;;;;-144.99;40.56;52060.84;4931395;29;19927;-67
2022/05/11 12:27:29;;;;;;;;;;;;;;;-144.99;40.32;52132.19;4931468;29;20408;-67
2022/05/11 12:29:59;;;;;;;;;;;;;;;-144.99;41.23;52138.28;4930139;29;19988;-66
2022/05/11 12:32:27;;;;;;;;;;;;;;;-144.99;41.58;52069.00;4929550;29;19931;-66
2022/05/11 12:34:54;;;;;;;;;;;;;;;-144.99;41.66;52146.44;4932533;29;19946;-66
2022/05/11 12:37:28;;;;;;;;;;;;;;;-144.99;41.70;52099.56;4931982;29;20708;-66
2022/05/11 12:39:57;;;;;;;;;;;;;;;-144.99;41.69;52109.75;4931189;29;20129;-67
2022/05/11 12:42:30;;;;;;;;;;;;;;;-144.99;41.56;52166.81;4926557;29;19931;-66
2022/05/11 12:44:57;;;;;;;;;;;;;;;-144.99;41.52;52134.22;4929163;29;20154;-67
2022/05/11 12:47:23;;;;;;;;;;;;;;;-144.99;42.13;52172.94;4931169;29;20002;-67
2022/05/11 12:49:50;;;;;;;;;;;;;;;-144.99;42.41;52134.22;4929622;29;19934;-66
2022/05/11 12:52:18;;;;;;;;;;;;;;;-144.99;42.44;52130.13;4927722;29;20405;-67
2022/05/11 12:54:56;;;;;;;;;;;;;;;-144.99;42.55;52136.25;4929856;29;21213;-66
2022/05/11 12:57:23;;;;;;;;;;;;;;;-144.99;41.42;52146.44;4930997;29;19982;-67
2022/05/11 12:59:50;;;;;;;;;;;;;;;-144.99;41.84;52179.06;4931265;29;19931;-66
2022/05/11 13:02:17;;;;;;;;;;;;;;;-144.99;42.04;52174.97;4927531;29;19931;-65
2022/05/11 13:04:51;;;;;;;;;;;;;;;-144.99;41.71;52158.66;4926668;29;19930;-66
2022/05/11 13:07:20;;;;;;;;;;;;;;;-144.99;41.29;52109.75;4930293;29;19931;-66
2022/05/11 13:09:48;;;;;;;;;;;;;;;-144.99;41.33;52162.75;4931382;29;19990;-66